createdAt,value
2019-05-29T00:00:10.196Z,5.10
2019-05-29T00:02:37.132Z,5.00
2019-05-29T00:05:05.932Z,5.20
2019-05-29T00:07:32.987Z,5.20
2019-05-29T00:09:59.690Z,4.63
2019-05-29T00:12:26.401Z,4.83
2019-05-29T00:14:53.397Z,5.03
2019-05-29T00:17:20.112Z,5.07
2019-05-29T00:19:46.804Z,4.80
2019-05-29T00:22:14.510Z,4.70
2019-05-29T00:24:41.423Z,5.47
2019-05-29T00:27:08.171Z,5.90
2019-05-29T00:29:36.870Z,6.73
2019-05-29T00:32:03.595Z,6.60
2019-05-29T00:34:30.283Z,6.47
2019-05-29T00:36:57.031Z,6.87
2019-05-29T00:39:23.741Z,6.97
2019-05-29T00:41:50.484Z,6.90
2019-05-29T00:44:18.644Z,7.73
2019-05-29T00:47:05.693Z,7.33
2019-05-29T00:49:32.402Z,7.67
2019-05-29T00:51:59.213Z,7.40
2019-05-29T00:54:25.925Z,8.23
2019-05-29T00:56:52.631Z,7.30
2019-05-29T00:59:19.341Z,7.57
2019-05-29T01:01:46.324Z,7.97
2019-05-29T01:04:13.608Z,8.20
2019-05-29T01:06:40.657Z,8.37
2019-05-29T01:09:07.406Z,8.87
2019-05-29T01:11:34.113Z,7.30
2019-05-29T01:14:00.871Z,7.77
2019-05-29T01:16:27.599Z,8.53
2019-05-29T01:18:56.431Z,7.43
2019-05-29T01:21:23.165Z,8.63
2019-05-29T01:23:50.505Z,8.07
2019-05-29T01:26:17.311Z,8.10
2019-05-29T01:28:44.239Z,8.07
2019-05-29T01:31:10.981Z,8.20
2019-05-29T01:33:37.713Z,7.57
2019-05-29T01:36:04.754Z,7.33
2019-05-29T01:38:31.486Z,8.40
2019-05-29T01:40:58.204Z,8.50
2019-05-29T01:43:25.279Z,8.23
2019-05-29T01:45:52.003Z,7.63
2019-05-29T01:48:19.579Z,7.83
2019-05-29T01:50:46.390Z,8.50
2019-05-29T01:53:13.469Z,8.00
2019-05-29T01:55:40.200Z,8.30
2019-05-29T01:58:07.659Z,9.10
2019-05-29T02:00:34.380Z,7.57
2019-05-29T02:03:01.143Z,7.50
2019-05-29T02:05:28.273Z,8.17
2019-05-29T02:07:55.343Z,8.80
2019-05-29T02:10:22.240Z,7.90
2019-05-29T02:12:49.182Z,8.70
2019-05-29T02:15:29.536Z,8.90
2019-05-29T02:17:44.556Z,7.77
2019-05-29T02:20:11.399Z,8.73
2019-05-29T02:22:38.412Z,8.03
2019-05-29T02:25:05.283Z,8.33
2019-05-29T02:27:32.022Z,8.20
2019-05-29T02:29:58.803Z,8.10
2019-05-29T02:32:25.868Z,8.10
2019-05-29T02:34:52.711Z,8.53
2019-05-29T02:37:20.152Z,9.10
2019-05-29T02:39:46.939Z,8.80
2019-05-29T02:42:13.642Z,8.10
2019-05-29T02:44:40.342Z,8.33
2019-05-29T02:47:07.335Z,8.10
2019-05-29T02:49:34.042Z,8.57
2019-05-29T02:52:00.768Z,9.20
2019-05-29T02:54:29.429Z,8.27
2019-05-29T02:56:56.226Z,8.10
2019-05-29T02:59:23.630Z,8.87
2019-05-29T03:01:51.582Z,8.87
2019-05-29T03:04:18.285Z,9.20
2019-05-29T03:06:44.988Z,9.10
2019-05-29T03:09:11.705Z,8.67
2019-05-29T03:11:38.415Z,8.20
2019-05-29T03:14:05.137Z,7.80
2019-05-29T03:16:32.828Z,8.47
2019-05-29T03:19:01.694Z,8.70
2019-05-29T03:21:28.902Z,9.00
2019-05-29T03:23:57.028Z,8.83
2019-05-29T03:26:26.444Z,8.83
2019-05-29T03:28:52.352Z,8.60
2019-05-29T03:31:19.082Z,8.40
2019-05-29T03:33:49.762Z,8.63
2019-05-29T03:36:14.461Z,8.27
2019-05-29T03:38:41.147Z,8.20
2019-05-29T03:41:07.859Z,8.57
2019-05-29T03:43:36.094Z,9.20
2019-05-29T03:46:03.308Z,9.20
2019-05-29T03:48:30.559Z,8.57
2019-05-29T03:50:58.594Z,8.57
2019-05-29T03:53:26.885Z,8.67
2019-05-29T03:55:53.919Z,8.33
2019-05-29T03:58:20.626Z,8.70
2019-05-29T04:00:48.857Z,8.27
2019-05-29T04:03:16.249Z,7.97
2019-05-29T04:05:43.007Z,8.30
2019-05-29T04:08:10.063Z,8.43
2019-05-29T04:10:37.921Z,8.60
2019-05-29T04:13:07.554Z,8.40
2019-05-29T04:15:36.641Z,8.83
2019-05-29T04:18:04.127Z,8.03
2019-05-29T04:20:33.595Z,9.00
2019-05-29T04:23:00.310Z,8.50
2019-05-29T04:25:31.305Z,8.03
2019-05-29T04:27:55.665Z,8.17
2019-05-29T04:30:22.402Z,8.10
2019-05-29T04:32:49.118Z,8.27
2019-05-29T04:35:15.852Z,8.20
2019-05-29T04:37:42.562Z,8.30
2019-05-29T04:40:09.290Z,8.73
2019-05-29T04:42:37.644Z,8.23
2019-05-29T04:45:04.843Z,7.87
2019-05-29T04:47:33.140Z,8.83
2019-05-29T04:50:00.096Z,8.33
2019-05-29T04:52:26.821Z,8.27
2019-05-29T04:54:53.527Z,8.57
2019-05-29T04:57:20.249Z,7.63
2019-05-29T04:59:50.263Z,7.90
2019-05-29T05:02:16.959Z,8.17
2019-05-29T05:04:43.685Z,8.70
2019-05-29T05:07:10.385Z,7.43
2019-05-29T05:09:37.572Z,6.97
2019-05-29T05:12:04.580Z,7.70
2019-05-29T05:14:31.574Z,7.80
2019-05-29T05:16:58.503Z,7.40
2019-05-29T05:19:25.222Z,8.90
2019-05-29T05:21:51.927Z,8.20
2019-05-29T05:24:18.650Z,8.80
2019-05-29T05:26:45.383Z,7.60
2019-05-29T05:29:12.249Z,6.83
2019-05-29T05:31:40.657Z,6.93
2019-05-29T05:34:08.122Z,6.90
2019-05-29T05:36:38.885Z,7.57
2019-05-29T05:39:06.216Z,7.70
2019-05-29T05:41:33.069Z,6.40
2019-05-29T05:44:00.149Z,6.60
2019-05-29T05:46:26.883Z,7.47
2019-05-29T05:48:53.708Z,6.67
2019-05-29T05:51:20.426Z,6.80
2019-05-29T05:53:47.270Z,6.70
2019-05-29T05:56:14.107Z,6.30
2019-05-29T05:58:42.282Z,6.90
2019-05-29T06:01:09.371Z,6.47
2019-05-29T06:03:36.190Z,6.40
2019-05-29T06:06:02.968Z,6.63
2019-05-29T06:08:29.655Z,7.73
2019-05-29T06:10:56.503Z,6.97
2019-05-29T06:13:23.215Z,6.40
2019-05-29T06:15:49.961Z,6.50
2019-05-29T06:18:21.589Z,5.57
2019-05-29T06:20:45.696Z,5.70
2019-05-29T06:23:12.408Z,7.90
2019-05-29T06:25:40.707Z,6.20
2019-05-29T06:28:08.188Z,5.80
2019-05-29T06:30:36.621Z,5.80
2019-05-29T06:33:03.672Z,5.70
2019-05-29T06:35:30.412Z,6.40
2019-05-29T06:37:57.162Z,5.33
2019-05-29T06:40:30.978Z,5.63
2019-05-29T06:42:57.771Z,5.80
2019-05-29T06:45:29.995Z,5.83
2019-05-29T06:47:56.750Z,5.20
2019-05-29T06:50:23.471Z,6.00
2019-05-29T06:52:50.305Z,5.67
2019-05-29T06:55:17.027Z,5.90
2019-05-29T06:57:44.531Z,5.73
2019-05-29T07:00:11.228Z,6.60
2019-05-29T07:02:38.596Z,5.90
2019-05-29T07:05:05.962Z,6.17
2019-05-29T07:07:32.653Z,5.30
2019-05-29T07:09:59.381Z,11.33
2019-05-29T07:12:26.231Z,5.53
2019-05-29T07:14:52.934Z,5.50
2019-05-29T07:17:22.064Z,6.20
2019-05-29T07:20:00.726Z,5.93
2019-05-29T07:22:17.428Z,7.30
2019-05-29T07:24:45.029Z,7.07
2019-05-29T07:27:13.629Z,5.10
2019-05-29T07:29:41.166Z,6.67
2019-05-29T07:32:08.158Z,6.53
2019-05-29T07:34:49.648Z,9.40
2019-05-29T07:37:03.820Z,5.87
2019-05-29T07:39:30.624Z,5.80
2019-05-29T07:41:57.395Z,5.47
2019-05-29T07:44:24.103Z,5.43
2019-05-29T07:46:50.817Z,5.77
2019-05-29T07:49:17.566Z,5.77
2019-05-29T07:51:45.047Z,5.70
2019-05-29T07:54:12.825Z,5.30
2019-05-29T07:56:40.371Z,5.20
2019-05-29T07:59:07.471Z,14.23
2019-05-29T08:01:34.186Z,5.63
2019-05-29T08:04:00.915Z,5.40
2019-05-29T08:06:27.640Z,5.07
2019-05-29T08:08:54.368Z,5.33
2019-05-29T08:11:21.304Z,5.60
2019-05-29T08:13:48.143Z,5.30
2019-05-29T08:16:14.981Z,5.23
2019-05-29T08:18:46.132Z,5.90
2019-05-29T08:21:10.573Z,5.10
2019-05-29T08:23:38.277Z,6.40
2019-05-29T08:26:05.396Z,6.50
2019-05-29T08:28:32.251Z,4.97
2019-05-29T08:30:58.963Z,5.97
2019-05-29T08:33:25.809Z,5.07
2019-05-29T08:35:59.965Z,5.27
2019-05-29T08:38:21.619Z,4.77
2019-05-29T08:40:49.498Z,5.57
2019-05-29T08:43:16.762Z,5.17
2019-05-29T08:45:43.547Z,4.90
2019-05-29T08:48:10.288Z,7.57
2019-05-29T08:50:37.048Z,5.70
2019-05-29T08:53:03.812Z,6.30
2019-05-29T08:55:30.532Z,5.33
2019-05-29T08:57:57.298Z,5.00
2019-05-29T09:00:24.378Z,5.00
2019-05-29T09:02:51.284Z,5.60
2019-05-29T09:05:18.206Z,5.20
2019-05-29T09:07:46.423Z,4.60
2019-05-29T09:10:14.043Z,5.90
2019-05-29T09:12:40.818Z,4.90
2019-05-29T09:15:09.603Z,4.50
2019-05-29T09:17:36.732Z,4.73
2019-05-29T09:20:06.860Z,6.90
2019-05-29T09:22:33.581Z,5.93
2019-05-29T09:25:00.302Z,5.10
2019-05-29T09:27:27.051Z,4.53
2019-05-29T09:29:53.736Z,4.90
2019-05-29T09:32:40.756Z,5.13
2019-05-29T09:34:50.039Z,5.20
2019-05-29T09:37:17.426Z,6.47
2019-05-29T09:39:45.404Z,6.60
2019-05-29T09:42:12.424Z,5.47
2019-05-29T09:44:40.213Z,4.50
2019-05-29T09:47:07.118Z,5.03
2019-05-29T09:49:33.815Z,4.17
2019-05-29T09:52:01.016Z,4.57
2019-05-29T09:54:28.928Z,4.33
2019-05-29T09:56:56.846Z,4.33
2019-05-29T09:59:25.968Z,4.33
2019-05-29T10:01:54.092Z,3.83
2019-05-29T10:04:21.291Z,4.40
2019-05-29T10:06:48.006Z,4.70
2019-05-29T10:09:14.729Z,4.13
2019-05-29T10:11:41.475Z,5.60
2019-05-29T10:14:08.274Z,4.77
2019-05-29T10:16:35.867Z,3.70
2019-05-29T10:19:05.820Z,4.90
2019-05-29T10:21:40.264Z,4.33
2019-05-29T10:24:02.292Z,4.10
2019-05-29T10:26:29.999Z,4.00
2019-05-29T10:29:07.975Z,4.47
2019-05-29T10:31:25.565Z,4.10
2019-05-29T10:33:52.456Z,3.60
2019-05-29T10:36:19.121Z,3.80
2019-05-29T10:38:46.492Z,3.27
2019-05-29T10:41:13.648Z,2.90
2019-05-29T10:43:40.621Z,3.30
2019-05-29T10:46:07.364Z,3.17
2019-05-29T10:48:34.246Z,3.20
2019-05-29T10:51:04.818Z,3.30
2019-05-29T10:53:31.614Z,4.27
2019-05-29T10:55:58.356Z,3.67
2019-05-29T10:58:25.119Z,3.63
2019-05-29T11:00:53.229Z,3.40
2019-05-29T11:03:20.330Z,3.30
2019-05-29T11:05:47.552Z,3.20
2019-05-29T11:08:14.875Z,3.37
2019-05-29T11:10:41.718Z,3.30
2019-05-29T11:13:08.484Z,2.90
2019-05-29T11:15:35.851Z,2.60
2019-05-29T11:18:02.683Z,2.57
2019-05-29T11:20:29.396Z,2.63
2019-05-29T11:22:56.282Z,2.70
2019-05-29T11:25:27.912Z,2.70
2019-05-29T11:27:54.939Z,2.67
2019-05-29T11:30:21.632Z,3.20
2019-05-29T11:32:50.919Z,4.47
2019-05-29T11:35:17.956Z,2.90
2019-05-29T11:37:45.148Z,2.30
2019-05-29T11:40:12.916Z,3.13
2019-05-29T11:42:40.163Z,2.83
2019-05-29T11:45:37.906Z,2.83
2019-05-29T11:48:05.435Z,2.10
2019-05-29T11:50:32.318Z,5.90
2019-05-29T11:52:59.059Z,3.03
2019-05-29T11:55:26.297Z,2.83
2019-05-29T11:57:53.792Z,2.93
2019-05-29T12:00:23.695Z,2.30
2019-05-29T12:02:55.805Z,5.80
2019-05-29T12:05:22.872Z,3.63
2019-05-29T12:07:49.589Z,2.60
2019-05-29T12:10:16.463Z,2.70
2019-05-29T12:12:43.321Z,2.07
2019-05-29T12:15:14.836Z,2.23
2019-05-29T12:17:39.072Z,2.50
2019-05-29T12:20:26.421Z,2.33
2019-05-29T12:22:35.147Z,2.20
2019-05-29T12:25:03.002Z,2.50
2019-05-29T12:27:30.040Z,2.43
2019-05-29T12:29:56.857Z,2.47
2019-05-29T12:32:23.844Z,2.50
2019-05-29T12:34:53.479Z,2.47
2019-05-29T12:37:19.327Z,2.60
2019-05-29T12:39:46.060Z,2.27
2019-05-29T12:42:12.799Z,2.13
2019-05-29T12:44:39.885Z,2.00
2019-05-29T12:47:06.693Z,2.40
2019-05-29T12:49:33.617Z,3.30
2019-05-29T12:52:01.902Z,1.80
2019-05-29T12:54:28.970Z,2.00
2019-05-29T12:56:55.835Z,2.57
2019-05-29T12:59:22.590Z,2.10
2019-05-29T13:01:49.315Z,1.97
2019-05-29T13:04:16.081Z,1.80
2019-05-29T13:06:42.798Z,1.67
2019-05-29T13:09:09.619Z,1.53
2019-05-29T13:11:36.327Z,1.70
2019-05-29T13:14:03.077Z,1.90
2019-05-29T13:16:29.807Z,1.40
2019-05-29T13:18:57.018Z,1.27
2019-05-29T13:21:24.266Z,1.53
2019-05-29T13:23:51.072Z,1.67
2019-05-29T13:26:17.836Z,1.80
2019-05-29T13:28:45.062Z,1.70
2019-05-29T13:31:11.774Z,1.93
2019-05-29T13:33:38.731Z,1.87
2019-05-29T13:36:06.717Z,1.80
2019-05-29T13:38:34.086Z,1.60
2019-05-29T13:41:02.312Z,1.90
2019-05-29T13:43:29.413Z,1.53
2019-05-29T13:45:56.333Z,1.30
2019-05-29T13:48:23.584Z,5.20
2019-05-29T13:50:51.066Z,1.70
2019-05-29T13:53:17.868Z,1.63
2019-05-29T13:55:44.540Z,1.30
2019-05-29T13:58:11.265Z,1.23
2019-05-29T14:00:38.023Z,1.33
2019-05-29T14:03:05.037Z,1.80
2019-05-29T14:05:33.967Z,1.90
2019-05-29T14:08:01.128Z,1.30
2019-05-29T14:10:28.268Z,1.23
2019-05-29T14:12:55.050Z,1.50
2019-05-29T14:15:21.768Z,1.30
2019-05-29T14:17:48.550Z,1.80
2019-05-29T14:20:15.913Z,1.50
2019-05-29T14:22:42.638Z,1.50
2019-05-29T14:25:14.298Z,1.50
2019-05-29T14:27:41.667Z,1.70
2019-05-29T14:30:10.303Z,1.30
2019-05-29T14:32:37.296Z,1.57
2019-05-29T14:35:05.602Z,1.60
2019-05-29T14:37:32.779Z,1.40
2019-05-29T14:39:59.566Z,1.60
2019-05-29T14:42:26.304Z,1.30
2019-05-29T14:44:53.041Z,1.60
2019-05-29T14:47:19.748Z,1.13
2019-05-29T14:49:46.482Z,1.53
2019-05-29T14:52:13.445Z,1.70
2019-05-29T14:54:42.132Z,1.63
2019-05-29T14:57:21.600Z,1.40
2019-05-29T14:59:37.926Z,1.40
2019-05-29T15:02:07.544Z,1.40
2019-05-29T15:04:33.361Z,1.73
2019-05-29T15:07:00.415Z,1.57
2019-05-29T15:09:27.141Z,1.37
2019-05-29T15:11:53.845Z,1.30
2019-05-29T15:14:20.560Z,1.70
2019-05-29T15:16:47.282Z,1.37
2019-05-29T15:19:15.244Z,1.47
2019-05-29T15:21:42.481Z,1.60
2019-05-29T15:24:09.519Z,1.53
2019-05-29T15:26:36.441Z,1.60
2019-05-29T15:29:03.615Z,1.60
2019-05-29T15:31:30.364Z,1.40
2019-05-29T15:33:57.104Z,1.50
2019-05-29T15:36:23.966Z,1.30
2019-05-29T15:38:50.701Z,1.30
2019-05-29T15:41:17.419Z,1.90
2019-05-29T15:43:44.187Z,2.17
2019-05-29T15:46:12.137Z,1.10
2019-05-29T15:48:41.085Z,1.60
2019-05-29T15:51:08.810Z,1.70
2019-05-29T15:53:36.081Z,1.70
2019-05-29T15:56:16.985Z,1.80
2019-05-29T15:58:31.661Z,1.47
2019-05-29T16:00:58.838Z,1.50
2019-05-29T16:03:25.545Z,1.27
2019-05-29T16:05:52.355Z,1.30
2019-05-29T16:08:19.363Z,1.27
2019-05-29T16:10:46.139Z,1.50
2019-05-29T16:13:15.045Z,1.90
2019-05-29T16:15:42.459Z,2.20
2019-05-29T16:18:19.849Z,1.70
2019-05-29T16:20:39.809Z,1.83
2019-05-29T16:23:06.510Z,2.10
2019-05-29T16:25:40.232Z,1.70
2019-05-29T16:28:01.874Z,1.93
2019-05-29T16:30:29.421Z,1.90
2019-05-29T16:32:56.239Z,1.63
2019-05-29T16:35:24.112Z,1.73
2019-05-29T16:37:51.411Z,1.63
2019-05-29T16:40:18.354Z,1.70
2019-05-29T16:42:45.054Z,1.60
2019-05-29T16:45:12.225Z,1.33
2019-05-29T16:47:39.442Z,1.93
2019-05-29T16:50:07.750Z,1.90
2019-05-29T16:52:34.602Z,1.80
2019-05-29T16:55:01.451Z,1.80
2019-05-29T16:57:28.939Z,1.57
2019-05-29T16:59:57.373Z,1.60
2019-05-29T17:02:24.118Z,1.70
2019-05-29T17:04:51.296Z,2.00
2019-05-29T17:07:20.144Z,2.47
2019-05-29T17:09:46.849Z,2.53
2019-05-29T17:12:14.664Z,4.77
2019-05-29T17:14:41.489Z,4.43
2019-05-29T17:17:08.373Z,10.73
2019-05-29T17:19:35.142Z,4.00
2019-05-29T17:22:03.168Z,3.10
2019-05-29T17:24:29.877Z,2.57
2019-05-29T17:26:56.933Z,3.07
2019-05-29T17:29:24.950Z,2.60
2019-05-29T17:31:52.375Z,3.00
2019-05-29T17:34:19.099Z,2.90
2019-05-29T17:36:45.814Z,2.80
2019-05-29T17:39:12.743Z,2.93
2019-05-29T17:41:41.109Z,3.20
2019-05-29T17:44:07.882Z,2.87
2019-05-29T17:46:34.593Z,2.60
2019-05-29T17:49:01.304Z,2.93
2019-05-29T17:51:28.157Z,3.53
2019-05-29T17:53:54.920Z,4.70
2019-05-29T17:56:32.275Z,3.63
2019-05-29T17:58:50.277Z,3.37
2019-05-29T18:01:18.201Z,3.20
2019-05-29T18:03:45.141Z,2.70
2019-05-29T18:06:11.839Z,2.77
2019-05-29T18:08:38.574Z,2.97
2019-05-29T18:11:05.277Z,3.57
2019-05-29T18:13:32.034Z,3.10
2019-05-29T18:15:58.794Z,2.93
2019-05-29T18:18:25.802Z,3.63
2019-05-29T18:20:52.745Z,2.87
2019-05-29T18:23:19.964Z,2.87
2019-05-29T18:25:47.226Z,2.60
2019-05-29T18:28:14.340Z,2.70
2019-05-29T18:30:41.080Z,3.17
2019-05-29T18:33:07.841Z,2.90
2019-05-29T18:35:34.582Z,3.33
2019-05-29T18:38:01.361Z,3.40
2019-05-29T18:40:28.432Z,2.80
2019-05-29T18:42:55.348Z,2.73
2019-05-29T18:45:24.312Z,3.10
2019-05-29T18:47:50.863Z,3.63
2019-05-29T18:50:17.610Z,4.10
2019-05-29T18:52:44.649Z,3.17
2019-05-29T18:55:11.481Z,3.07
2019-05-29T18:57:38.343Z,3.33
2019-05-29T19:00:05.201Z,5.63
2019-05-29T19:02:31.950Z,3.87
2019-05-29T19:04:58.783Z,4.20
2019-05-29T19:07:25.801Z,4.07
2019-05-29T19:09:55.015Z,3.97
2019-05-29T19:12:21.813Z,3.90
2019-05-29T19:14:48.462Z,4.50
2019-05-29T19:17:15.558Z,4.30
2019-05-29T19:19:42.220Z,4.53
2019-05-29T19:22:10.081Z,5.27
2019-05-29T19:24:36.859Z,4.87
2019-05-29T19:27:03.807Z,5.67
2019-05-29T19:29:31.171Z,5.77
2019-05-29T19:31:58.512Z,6.10
2019-05-29T19:34:25.327Z,5.30
2019-05-29T19:36:52.053Z,3.60
2019-05-29T19:39:18.895Z,3.50
2019-05-29T19:41:45.721Z,3.30
2019-05-29T19:44:12.838Z,3.20
2019-05-29T19:46:53.092Z,3.63
2019-05-29T19:49:08.297Z,3.83
2019-05-29T19:51:35.510Z,3.27
2019-05-29T19:54:02.405Z,4.63
2019-05-29T19:56:29.696Z,6.07
2019-05-29T19:58:56.374Z,7.57
2019-05-29T20:01:31.695Z,6.10
2019-05-29T20:03:51.748Z,4.30
2019-05-29T20:06:18.833Z,2.97
2019-05-29T20:08:45.549Z,3.57
2019-05-29T20:11:12.615Z,2.93
2019-05-29T20:13:39.315Z,2.70
2019-05-29T20:16:06.067Z,2.73
2019-05-29T20:18:34.072Z,3.30
2019-05-29T20:21:00.998Z,3.20
2019-05-29T20:23:28.601Z,3.50
2019-05-29T20:25:55.428Z,4.43
2019-05-29T20:28:22.167Z,7.67
2019-05-29T20:30:48.913Z,8.43
2019-05-29T20:33:15.648Z,7.77
2019-05-29T20:35:43.173Z,8.80
2019-05-29T20:38:10.084Z,9.77
2019-05-29T20:40:37.347Z,10.87
2019-05-29T20:43:04.275Z,9.83
2019-05-29T20:45:33.678Z,8.63
2019-05-29T20:48:00.928Z,9.30
2019-05-29T20:50:27.687Z,12.53
2019-05-29T20:52:56.002Z,10.93
2019-05-29T20:55:22.712Z,9.40
2019-05-29T20:57:50.806Z,9.70
2019-05-29T21:00:18.721Z,7.53
2019-05-29T21:02:45.438Z,7.20
2019-05-29T21:05:12.193Z,6.57
2019-05-29T21:07:38.950Z,8.90
2019-05-29T21:10:06.380Z,6.90
2019-05-29T21:12:37.507Z,6.87
2019-05-29T21:15:05.596Z,5.00
2019-05-29T21:17:33.602Z,5.17
2019-05-29T21:20:00.472Z,4.50
2019-05-29T21:22:27.224Z,4.23
2019-05-29T21:25:02.654Z,4.13
2019-05-29T21:27:23.352Z,4.70
2019-05-29T21:29:50.104Z,4.43
2019-05-29T21:32:17.165Z,4.07
2019-05-29T21:34:44.035Z,4.30
2019-05-29T21:37:10.705Z,4.17
2019-05-29T21:39:38.335Z,3.93
2019-05-29T21:42:05.450Z,4.90
2019-05-29T21:44:32.305Z,4.90
2019-05-29T21:47:00.071Z,5.40
2019-05-29T21:49:26.896Z,5.30
2019-05-29T21:51:53.745Z,5.10
2019-05-29T21:54:20.473Z,4.67
2019-05-29T21:56:47.905Z,5.10
2019-05-29T21:59:14.854Z,4.60
2019-05-29T22:01:42.081Z,4.60
2019-05-29T22:04:09.178Z,5.20
2019-05-29T22:06:35.934Z,5.77
2019-05-29T22:09:04.316Z,6.40
2019-05-29T22:11:31.012Z,6.30
2019-05-29T22:13:58.535Z,5.60
2019-05-29T22:16:25.342Z,5.20
2019-05-29T22:18:52.790Z,5.07
2019-05-29T22:21:20.224Z,5.00
2019-05-29T22:23:46.932Z,4.70
2019-05-29T22:26:13.750Z,5.03
2019-05-29T22:28:40.550Z,4.60
2019-05-29T22:31:07.261Z,4.30
2019-05-29T22:33:34.248Z,4.47
2019-05-29T22:36:01.698Z,4.00
2019-05-29T22:38:31.826Z,3.70
2019-05-29T22:40:59.689Z,3.77
2019-05-29T22:43:26.403Z,3.80
2019-05-29T22:45:53.607Z,3.93
2019-05-29T22:48:20.452Z,4.33
2019-05-29T22:50:47.190Z,3.37
2019-05-29T22:53:14.215Z,3.90
2019-05-29T22:55:40.940Z,3.60
2019-05-29T22:58:07.630Z,3.77
2019-05-29T23:00:34.445Z,3.43
2019-05-29T23:03:02.420Z,4.10
2019-05-29T23:05:29.196Z,3.80
2019-05-29T23:07:56.130Z,4.37
2019-05-29T23:10:22.937Z,4.30
2019-05-29T23:12:49.782Z,4.10
2019-05-29T23:15:16.842Z,3.80
2019-05-29T23:17:43.584Z,4.03
2019-05-29T23:20:10.300Z,3.73
2019-05-29T23:22:37.003Z,3.50
2019-05-29T23:25:03.829Z,3.73
2019-05-29T23:27:33.722Z,3.50
2019-05-29T23:30:01.079Z,4.23
2019-05-29T23:32:28.107Z,3.73
2019-05-29T23:34:55.095Z,3.80
2019-05-29T23:37:21.930Z,4.10
2019-05-29T23:39:48.958Z,3.80
2019-05-29T23:42:15.653Z,3.70
2019-05-29T23:44:42.347Z,3.70
2019-05-29T23:47:09.374Z,3.83
2019-05-29T23:49:36.101Z,5.10
2019-05-29T23:52:04.523Z,4.23
2019-05-29T23:54:31.425Z,4.00
2019-05-29T23:56:58.152Z,4.20
2019-05-29T23:59:24.997Z,3.83
